sensor_id;sensor_type;location;lat;lon;timestamp;P1;durP1;ratioP1;P2;durP2;ratioP2
20073;SDS011;10197;54.282;10.078;2023-12-14T00:02:07;9.63;;;6.10;;
20073;SDS011;10197;54.282;10.078;2023-12-14T00:04:35;8.25;;;6.10;;
20073;SDS011;10197;54.282;10.078;2023-12-14T00:07:02;11.02;;;6.15;;
20073;SDS011;10197;54.282;10.078;2023-12-14T00:09:29;10.30;;;6.50;;
20073;SDS011;10197;54.282;10.078;2023-12-14T00:11:55;15.57;;;6.40;;
20073;SDS011;10197;54.282;10.078;2023-12-14T00:14:22;10.98;;;6.10;;
20073;SDS011;10197;54.282;10.078;2023-12-14T00:16:49;15.25;;;5.53;;
20073;SDS011;10197;54.282;10.078;2023-12-14T00:19:15;10.20;;;5.82;;
20073;SDS011;10197;54.282;10.078;2023-12-14T00:21:44;13.23;;;5.53;;
20073;SDS011;10197;54.282;10.078;2023-12-14T00:24:10;12.25;;;6.38;;
20073;SDS011;10197;54.282;10.078;2023-12-14T00:26:37;10.20;;;5.93;;
20073;SDS011;10197;54.282;10.078;2023-12-14T00:29:04;12.50;;;5.70;;
20073;SDS011;10197;54.282;10.078;2023-12-14T00:31:30;13.32;;;6.03;;
20073;SDS011;10197;54.282;10.078;2023-12-14T00:33:57;12.32;;;6.25;;
20073;SDS011;10197;54.282;10.078;2023-12-14T00:36:24;10.30;;;5.13;;
20073;SDS011;10197;54.282;10.078;2023-12-14T00:38:52;9.30;;;5.85;;
20073;SDS011;10197;54.282;10.078;2023-12-14T00:41:19;8.05;;;5.88;;
20073;SDS011;10197;54.282;10.078;2023-12-14T00:43:46;13.20;;;5.80;;
20073;SDS011;10197;54.282;10.078;2023-12-14T00:46:13;8.80;;;6.13;;
20073;SDS011;10197;54.282;10.078;2023-12-14T00:48:39;11.82;;;6.22;;
20073;SDS011;10197;54.282;10.078;2023-12-14T00:51:06;9.95;;;5.53;;
20073;SDS011;10197;54.282;10.078;2023-12-14T00:53:33;7.78;;;5.13;;
20073;SDS011;10197;54.282;10.078;2023-12-14T00:56:01;10.05;;;5.55;;
20073;SDS011;10197;54.282;10.078;2023-12-14T00:58:28;10.20;;;6.70;;
20073;SDS011;10197;54.282;10.078;2023-12-14T01:00:54;10.80;;;5.72;;
20073;SDS011;10197;54.282;10.078;2023-12-14T01:03:21;10.68;;;5.30;;
20073;SDS011;10197;54.282;10.078;2023-12-14T01:05:48;10.98;;;5.30;;
20073;SDS011;10197;54.282;10.078;2023-12-14T01:08:14;8.50;;;4.90;;
20073;SDS011;10197;54.282;10.078;2023-12-14T01:10:41;8.13;;;5.40;;
20073;SDS011;10197;54.282;10.078;2023-12-14T01:13:09;10.38;;;6.97;;
20073;SDS011;10197;54.282;10.078;2023-12-14T01:15:36;8.82;;;5.82;;
20073;SDS011;10197;54.282;10.078;2023-12-14T01:18:03;12.50;;;6.25;;
20073;SDS011;10197;54.282;10.078;2023-12-14T01:20:30;10.18;;;5.18;;
20073;SDS011;10197;54.282;10.078;2023-12-14T01:22:57;11.30;;;5.18;;
20073;SDS011;10197;54.282;10.078;2023-12-14T01:25:24;8.20;;;4.88;;
20073;SDS011;10197;54.282;10.078;2023-12-14T01:27:51;7.90;;;4.97;;
20073;SDS011;10197;54.282;10.078;2023-12-14T01:30:20;9.10;;;4.88;;
20073;SDS011;10197;54.282;10.078;2023-12-14T01:32:46;8.35;;;4.72;;
20073;SDS011;10197;54.282;10.078;2023-12-14T01:35:13;7.68;;;4.90;;
20073;SDS011;10197;54.282;10.078;2023-12-14T01:37:40;7.05;;;4.63;;
20073;SDS011;10197;54.282;10.078;2023-12-14T01:40:07;15.35;;;5.45;;
20073;SDS011;10197;54.282;10.078;2023-12-14T01:42:34;11.43;;;5.70;;
20073;SDS011;10197;54.282;10.078;2023-12-14T01:45:01;8.88;;;5.15;;
20073;SDS011;10197;54.282;10.078;2023-12-14T01:47:29;8.68;;;5.18;;
20073;SDS011;10197;54.282;10.078;2023-12-14T01:49:56;11.52;;;5.22;;
20073;SDS011;10197;54.282;10.078;2023-12-14T01:52:22;8.60;;;5.00;;
20073;SDS011;10197;54.282;10.078;2023-12-14T01:54:51;8.20;;;5.13;;
20073;SDS011;10197;54.282;10.078;2023-12-14T01:57:17;7.65;;;5.13;;
20073;SDS011;10197;54.282;10.078;2023-12-14T01:59:45;10.07;;;5.55;;
20073;SDS011;10197;54.282;10.078;2023-12-14T02:02:11;6.85;;;4.60;;
20073;SDS011;10197;54.282;10.078;2023-12-14T02:04:40;10.98;;;5.00;;
20073;SDS011;10197;54.282;10.078;2023-12-14T02:07:06;11.98;;;5.15;;
20073;SDS011;10197;54.282;10.078;2023-12-14T02:09:33;9.02;;;5.18;;
20073;SDS011;10197;54.282;10.078;2023-12-14T02:12:00;8.93;;;5.65;;
20073;SDS011;10197;54.282;10.078;2023-12-14T02:14:26;10.40;;;4.78;;
20073;SDS011;10197;54.282;10.078;2023-12-14T02:16:53;10.82;;;5.35;;
20073;SDS011;10197;54.282;10.078;2023-12-14T02:19:20;10.40;;;5.15;;
20073;SDS011;10197;54.282;10.078;2023-12-14T02:21:47;6.88;;;4.45;;
20073;SDS011;10197;54.282;10.078;2023-12-14T02:24:16;11.48;;;5.22;;
20073;SDS011;10197;54.282;10.078;2023-12-14T02:26:42;8.55;;;5.15;;
20073;SDS011;10197;54.282;10.078;2023-12-14T02:29:09;9.65;;;5.53;;
20073;SDS011;10197;54.282;10.078;2023-12-14T02:31:35;7.45;;;5.00;;
20073;SDS011;10197;54.282;10.078;2023-12-14T02:34:02;7.05;;;4.72;;
20073;SDS011;10197;54.282;10.078;2023-12-14T02:36:29;10.65;;;5.55;;
20073;SDS011;10197;54.282;10.078;2023-12-14T02:38:55;9.65;;;5.20;;
20073;SDS011;10197;54.282;10.078;2023-12-14T02:41:24;9.13;;;4.82;;
20073;SDS011;10197;54.282;10.078;2023-12-14T02:43:50;8.57;;;5.53;;
20073;SDS011;10197;54.282;10.078;2023-12-14T02:46:17;9.00;;;5.20;;
20073;SDS011;10197;54.282;10.078;2023-12-14T02:48:44;13.00;;;5.63;;
20073;SDS011;10197;54.282;10.078;2023-12-14T02:51:14;8.40;;;5.57;;
20073;SDS011;10197;54.282;10.078;2023-12-14T02:53:41;9.60;;;5.10;;
20073;SDS011;10197;54.282;10.078;2023-12-14T02:56:09;10.32;;;4.95;;
20073;SDS011;10197;54.282;10.078;2023-12-14T02:58:37;8.65;;;5.20;;
20073;SDS011;10197;54.282;10.078;2023-12-14T03:01:04;10.07;;;5.80;;
20073;SDS011;10197;54.282;10.078;2023-12-14T03:03:31;9.40;;;5.32;;
20073;SDS011;10197;54.282;10.078;2023-12-14T03:05:57;8.95;;;5.22;;
20073;SDS011;10197;54.282;10.078;2023-12-14T03:08:24;9.70;;;5.25;;
20073;SDS011;10197;54.282;10.078;2023-12-14T03:10:51;9.77;;;4.70;;
20073;SDS011;10197;54.282;10.078;2023-12-14T03:13:18;9.23;;;5.57;;
20073;SDS011;10197;54.282;10.078;2023-12-14T03:15:46;8.38;;;4.93;;
20073;SDS011;10197;54.282;10.078;2023-12-14T03:18:14;11.18;;;4.82;;
20073;SDS011;10197;54.282;10.078;2023-12-14T03:20:41;9.52;;;5.50;;
20073;SDS011;10197;54.282;10.078;2023-12-14T03:23:07;8.75;;;5.03;;
20073;SDS011;10197;54.282;10.078;2023-12-14T03:25:34;7.03;;;5.13;;
20073;SDS011;10197;54.282;10.078;2023-12-14T03:28:01;9.77;;;5.07;;
20073;SDS011;10197;54.282;10.078;2023-12-14T03:30:27;10.38;;;5.10;;
20073;SDS011;10197;54.282;10.078;2023-12-14T03:32:55;9.55;;;5.47;;
20073;SDS011;10197;54.282;10.078;2023-12-14T03:35:22;11.63;;;4.80;;
20073;SDS011;10197;54.282;10.078;2023-12-14T03:37:49;10.15;;;5.30;;
20073;SDS011;10197;54.282;10.078;2023-12-14T03:40:15;8.32;;;5.07;;
20073;SDS011;10197;54.282;10.078;2023-12-14T03:42:42;10.55;;;5.20;;
20073;SDS011;10197;54.282;10.078;2023-12-14T03:45:09;8.02;;;4.90;;
20073;SDS011;10197;54.282;10.078;2023-12-14T03:47:36;10.65;;;5.07;;
20073;SDS011;10197;54.282;10.078;2023-12-14T03:50:04;7.00;;;4.72;;
20073;SDS011;10197;54.282;10.078;2023-12-14T03:52:32;8.90;;;5.68;;
20073;SDS011;10197;54.282;10.078;2023-12-14T03:54:59;9.07;;;5.25;;
20073;SDS011;10197;54.282;10.078;2023-12-14T03:57:26;9.43;;;5.63;;
20073;SDS011;10197;54.282;10.078;2023-12-14T03:59:53;9.25;;;4.88;;
20073;SDS011;10197;54.282;10.078;2023-12-14T04:02:19;8.65;;;4.72;;
20073;SDS011;10197;54.282;10.078;2023-12-14T04:04:46;9.57;;;5.28;;
20073;SDS011;10197;54.282;10.078;2023-12-14T04:07:14;7.55;;;5.35;;
20073;SDS011;10197;54.282;10.078;2023-12-14T04:09:41;9.10;;;5.13;;
20073;SDS011;10197;54.282;10.078;2023-12-14T04:12:08;9.98;;;5.25;;
20073;SDS011;10197;54.282;10.078;2023-12-14T04:14:34;9.10;;;5.30;;
20073;SDS011;10197;54.282;10.078;2023-12-14T04:17:01;10.52;;;5.00;;
20073;SDS011;10197;54.282;10.078;2023-12-14T04:19:27;7.95;;;4.80;;
20073;SDS011;10197;54.282;10.078;2023-12-14T04:21:53;5.75;;;4.55;;
20073;SDS011;10197;54.282;10.078;2023-12-14T04:24:22;6.65;;;4.90;;
20073;SDS011;10197;54.282;10.078;2023-12-14T04:26:48;8.52;;;4.97;;
20073;SDS011;10197;54.282;10.078;2023-12-14T04:29:15;10.52;;;5.95;;
20073;SDS011;10197;54.282;10.078;2023-12-14T04:31:42;10.00;;;5.47;;
20073;SDS011;10197;54.282;10.078;2023-12-14T04:34:08;9.68;;;4.93;;
20073;SDS011;10197;54.282;10.078;2023-12-14T04:36:40;8.90;;;5.05;;
20073;SDS011;10197;54.282;10.078;2023-12-14T04:39:07;9.65;;;5.28;;
20073;SDS011;10197;54.282;10.078;2023-12-14T04:41:35;13.30;;;5.82;;
20073;SDS011;10197;54.282;10.078;2023-12-14T04:44:02;8.00;;;5.90;;
20073;SDS011;10197;54.282;10.078;2023-12-14T04:46:29;9.15;;;5.80;;
20073;SDS011;10197;54.282;10.078;2023-12-14T04:48:55;7.63;;;5.43;;
20073;SDS011;10197;54.282;10.078;2023-12-14T04:51:22;12.48;;;5.90;;
20073;SDS011;10197;54.282;10.078;2023-12-14T04:53:49;8.80;;;5.38;;
20073;SDS011;10197;54.282;10.078;2023-12-14T04:56:15;9.43;;;5.90;;
20073;SDS011;10197;54.282;10.078;2023-12-14T04:58:44;8.32;;;5.78;;
20073;SDS011;10197;54.282;10.078;2023-12-14T05:01:11;12.60;;;6.40;;
20073;SDS011;10197;54.282;10.078;2023-12-14T05:03:38;11.07;;;5.95;;
20073;SDS011;10197;54.282;10.078;2023-12-14T05:06:04;9.40;;;5.55;;
20073;SDS011;10197;54.282;10.078;2023-12-14T05:08:32;8.63;;;6.05;;
20073;SDS011;10197;54.282;10.078;2023-12-14T05:10:58;8.65;;;5.60;;
20073;SDS011;10197;54.282;10.078;2023-12-14T05:13:25;10.77;;;6.15;;
20073;SDS011;10197;54.282;10.078;2023-12-14T05:15:53;12.57;;;5.88;;
20073;SDS011;10197;54.282;10.078;2023-12-14T05:18:20;9.88;;;6.03;;
20073;SDS011;10197;54.282;10.078;2023-12-14T05:20:47;11.85;;;5.70;;
20073;SDS011;10197;54.282;10.078;2023-12-14T05:23:13;9.95;;;6.38;;
20073;SDS011;10197;54.282;10.078;2023-12-14T05:25:41;8.35;;;6.40;;
20073;SDS011;10197;54.282;10.078;2023-12-14T05:28:08;8.52;;;5.97;;
20073;SDS011;10197;54.282;10.078;2023-12-14T05:30:35;9.85;;;6.07;;
20073;SDS011;10197;54.282;10.078;2023-12-14T05:33:03;9.35;;;6.63;;
20073;SDS011;10197;54.282;10.078;2023-12-14T05:35:29;8.43;;;5.32;;
20073;SDS011;10197;54.282;10.078;2023-12-14T05:37:56;7.93;;;5.63;;
20073;SDS011;10197;54.282;10.078;2023-12-14T05:40:23;8.48;;;5.72;;
20073;SDS011;10197;54.282;10.078;2023-12-14T05:42:50;10.43;;;6.18;;
20073;SDS011;10197;54.282;10.078;2023-12-14T05:45:16;9.57;;;5.90;;
20073;SDS011;10197;54.282;10.078;2023-12-14T05:47:43;10.02;;;5.32;;
20073;SDS011;10197;54.282;10.078;2023-12-14T05:50:12;10.63;;;5.65;;
20073;SDS011;10197;54.282;10.078;2023-12-14T05:52:38;9.02;;;5.55;;
20073;SDS011;10197;54.282;10.078;2023-12-14T05:55:07;7.03;;;5.43;;
20073;SDS011;10197;54.282;10.078;2023-12-14T05:57:34;10.63;;;5.38;;
20073;SDS011;10197;54.282;10.078;2023-12-14T06:00:01;11.57;;;5.88;;
20073;SDS011;10197;54.282;10.078;2023-12-14T06:02:30;7.18;;;4.97;;
20073;SDS011;10197;54.282;10.078;2023-12-14T06:04:57;9.02;;;5.57;;
20073;SDS011;10197;54.282;10.078;2023-12-14T06:07:26;10.98;;;6.22;;
20073;SDS011;10197;54.282;10.078;2023-12-14T06:09:52;10.75;;;5.75;;
20073;SDS011;10197;54.282;10.078;2023-12-14T06:12:19;7.78;;;5.45;;
20073;SDS011;10197;54.282;10.078;2023-12-14T06:14:46;10.32;;;5.82;;
20073;SDS011;10197;54.282;10.078;2023-12-14T06:17:12;8.63;;;5.70;;
20073;SDS011;10197;54.282;10.078;2023-12-14T06:19:39;11.07;;;5.93;;
20073;SDS011;10197;54.282;10.078;2023-12-14T06:22:06;7.60;;;5.30;;
20073;SDS011;10197;54.282;10.078;2023-12-14T06:24:34;7.07;;;5.53;;
20073;SDS011;10197;54.282;10.078;2023-12-14T06:27:00;10.55;;;5.20;;
20073;SDS011;10197;54.282;10.078;2023-12-14T06:29:28;11.07;;;6.07;;
20073;SDS011;10197;54.282;10.078;2023-12-14T06:31:55;10.00;;;5.45;;
20073;SDS011;10197;54.282;10.078;2023-12-14T06:34:22;7.85;;;5.32;;
20073;SDS011;10197;54.282;10.078;2023-12-14T06:36:48;12.57;;;5.35;;
20073;SDS011;10197;54.282;10.078;2023-12-14T06:39:15;10.27;;;6.10;;
20073;SDS011;10197;54.282;10.078;2023-12-14T06:41:44;11.25;;;5.43;;
20073;SDS011;10197;54.282;10.078;2023-12-14T06:44:10;9.23;;;5.55;;
20073;SDS011;10197;54.282;10.078;2023-12-14T06:46:37;10.90;;;4.88;;
20073;SDS011;10197;54.282;10.078;2023-12-14T06:49:04;7.18;;;4.90;;
20073;SDS011;10197;54.282;10.078;2023-12-14T06:51:30;10.82;;;5.70;;
20073;SDS011;10197;54.282;10.078;2023-12-14T06:53:57;7.45;;;5.40;;
20073;SDS011;10197;54.282;10.078;2023-12-14T06:56:24;7.90;;;5.10;;
20073;SDS011;10197;54.282;10.078;2023-12-14T06:58:52;10.88;;;5.10;;
20073;SDS011;10197;54.282;10.078;2023-12-14T07:01:19;8.50;;;4.90;;
20073;SDS011;10197;54.282;10.078;2023-12-14T07:03:45;7.45;;;5.28;;
20073;SDS011;10197;54.282;10.078;2023-12-14T07:06:13;8.48;;;4.85;;
20073;SDS011;10197;54.282;10.078;2023-12-14T07:08:39;9.98;;;5.22;;
20073;SDS011;10197;54.282;10.078;2023-12-14T07:11:06;9.40;;;5.18;;
20073;SDS011;10197;54.282;10.078;2023-12-14T07:13:33;7.97;;;4.90;;
20073;SDS011;10197;54.282;10.078;2023-12-14T07:16:04;6.97;;;5.13;;
20073;SDS011;10197;54.282;10.078;2023-12-14T07:18:31;8.63;;;4.45;;
20073;SDS011;10197;54.282;10.078;2023-12-14T07:20:58;6.70;;;4.30;;
20073;SDS011;10197;54.282;10.078;2023-12-14T07:23:25;6.30;;;4.70;;
20073;SDS011;10197;54.282;10.078;2023-12-14T07:25:52;7.03;;;4.60;;
20073;SDS011;10197;54.282;10.078;2023-12-14T07:28:18;7.05;;;4.25;;
20073;SDS011;10197;54.282;10.078;2023-12-14T07:30:45;5.25;;;4.75;;
20073;SDS011;10197;54.282;10.078;2023-12-14T07:33:14;6.50;;;3.88;;
20073;SDS011;10197;54.282;10.078;2023-12-14T07:35:41;6.68;;;4.20;;
20073;SDS011;10197;54.282;10.078;2023-12-14T07:38:08;4.63;;;3.80;;
20073;SDS011;10197;54.282;10.078;2023-12-14T07:40:34;4.45;;;3.60;;
20073;SDS011;10197;54.282;10.078;2023-12-14T07:43:01;4.35;;;3.60;;
20073;SDS011;10197;54.282;10.078;2023-12-14T07:45:28;4.20;;;3.80;;
20073;SDS011;10197;54.282;10.078;2023-12-14T07:47:55;7.45;;;4.57;;
20073;SDS011;10197;54.282;10.078;2023-12-14T07:50:23;6.32;;;4.25;;
20073;SDS011;10197;54.282;10.078;2023-12-14T07:52:49;4.18;;;3.75;;
20073;SDS011;10197;54.282;10.078;2023-12-14T07:55:16;6.82;;;3.83;;
20073;SDS011;10197;54.282;10.078;2023-12-14T07:57:44;5.72;;;4.50;;
20073;SDS011;10197;54.282;10.078;2023-12-14T08:00:11;4.93;;;4.25;;
20073;SDS011;10197;54.282;10.078;2023-12-14T08:02:38;10.20;;;4.45;;
20073;SDS011;10197;54.282;10.078;2023-12-14T08:05:05;6.78;;;4.65;;
20073;SDS011;10197;54.282;10.078;2023-12-14T08:07:34;6.05;;;4.82;;
20073;SDS011;10197;54.282;10.078;2023-12-14T08:10:00;6.22;;;4.70;;
20073;SDS011;10197;54.282;10.078;2023-12-14T08:12:27;7.10;;;4.88;;
20073;SDS011;10197;54.282;10.078;2023-12-14T08:14:54;5.82;;;4.80;;
20073;SDS011;10197;54.282;10.078;2023-12-14T08:17:20;7.88;;;4.93;;
20073;SDS011;10197;54.282;10.078;2023-12-14T08:19:47;5.22;;;4.55;;
20073;SDS011;10197;54.282;10.078;2023-12-14T08:22:14;7.10;;;4.43;;
20073;SDS011;10197;54.282;10.078;2023-12-14T08:24:42;6.65;;;4.65;;
20073;SDS011;10197;54.282;10.078;2023-12-14T08:27:08;9.90;;;5.55;;
20073;SDS011;10197;54.282;10.078;2023-12-14T08:29:35;6.32;;;4.65;;
20073;SDS011;10197;54.282;10.078;2023-12-14T08:32:02;8.23;;;4.95;;
20073;SDS011;10197;54.282;10.078;2023-12-14T08:34:29;7.57;;;4.50;;
20073;SDS011;10197;54.282;10.078;2023-12-14T08:36:56;8.52;;;5.18;;
20073;SDS011;10197;54.282;10.078;2023-12-14T08:39:22;6.72;;;5.38;;
20073;SDS011;10197;54.282;10.078;2023-12-14T08:41:53;8.43;;;5.68;;
20073;SDS011;10197;54.282;10.078;2023-12-14T08:44:20;11.15;;;5.78;;
20073;SDS011;10197;54.282;10.078;2023-12-14T08:46:46;7.30;;;5.30;;
20073;SDS011;10197;54.282;10.078;2023-12-14T08:49:14;8.25;;;4.80;;
20073;SDS011;10197;54.282;10.078;2023-12-14T08:51:42;5.80;;;4.45;;
20073;SDS011;10197;54.282;10.078;2023-12-14T08:54:08;7.50;;;4.60;;
20073;SDS011;10197;54.282;10.078;2023-12-14T08:56:35;7.15;;;4.90;;
20073;SDS011;10197;54.282;10.078;2023-12-14T08:59:03;7.43;;;4.75;;
20073;SDS011;10197;54.282;10.078;2023-12-14T09:01:30;9.30;;;5.00;;
20073;SDS011;10197;54.282;10.078;2023-12-14T09:03:57;6.07;;;4.38;;
20073;SDS011;10197;54.282;10.078;2023-12-14T09:06:24;5.55;;;4.57;;
20073;SDS011;10197;54.282;10.078;2023-12-14T09:08:50;5.38;;;4.57;;
20073;SDS011;10197;54.282;10.078;2023-12-14T09:11:17;7.32;;;5.18;;
20073;SDS011;10197;54.282;10.078;2023-12-14T09:13:44;6.55;;;4.65;;
20073;SDS011;10197;54.282;10.078;2023-12-14T09:16:12;6.78;;;4.65;;
20073;SDS011;10197;54.282;10.078;2023-12-14T09:18:39;7.15;;;4.70;;
20073;SDS011;10197;54.282;10.078;2023-12-14T09:21:05;8.85;;;4.40;;
20073;SDS011;10197;54.282;10.078;2023-12-14T09:23:32;6.35;;;4.70;;
20073;SDS011;10197;54.282;10.078;2023-12-14T09:25:59;6.35;;;4.57;;
20073;SDS011;10197;54.282;10.078;2023-12-14T09:28:26;5.82;;;4.55;;
20073;SDS011;10197;54.282;10.078;2023-12-14T09:30:52;6.70;;;5.25;;
20073;SDS011;10197;54.282;10.078;2023-12-14T09:33:20;9.57;;;5.13;;
20073;SDS011;10197;54.282;10.078;2023-12-14T09:35:47;7.30;;;4.35;;
20073;SDS011;10197;54.282;10.078;2023-12-14T09:38:14;6.00;;;4.45;;
20073;SDS011;10197;54.282;10.078;2023-12-14T09:40:42;7.75;;;4.35;;
20073;SDS011;10197;54.282;10.078;2023-12-14T09:43:09;5.57;;;3.92;;
20073;SDS011;10197;54.282;10.078;2023-12-14T09:45:37;7.55;;;5.07;;
20073;SDS011;10197;54.282;10.078;2023-12-14T09:48:06;9.50;;;4.35;;
20073;SDS011;10197;54.282;10.078;2023-12-14T09:50:34;4.00;;;3.53;;
20073;SDS011;10197;54.282;10.078;2023-12-14T09:53:01;6.90;;;4.72;;
20073;SDS011;10197;54.282;10.078;2023-12-14T09:55:27;6.93;;;4.63;;
20073;SDS011;10197;54.282;10.078;2023-12-14T09:57:56;7.43;;;4.43;;
20073;SDS011;10197;54.282;10.078;2023-12-14T10:00:32;5.97;;;4.38;;
20073;SDS011;10197;54.282;10.078;2023-12-14T10:03:13;7.28;;;4.50;;
20073;SDS011;10197;54.282;10.078;2023-12-14T10:05:45;6.15;;;4.93;;
20073;SDS011;10197;54.282;10.078;2023-12-14T10:08:12;8.77;;;4.20;;
20073;SDS011;10197;54.282;10.078;2023-12-14T10:10:39;8.25;;;5.20;;
20073;SDS011;10197;54.282;10.078;2023-12-14T10:13:06;6.53;;;4.40;;
20073;SDS011;10197;54.282;10.078;2023-12-14T10:15:40;5.68;;;4.15;;
20073;SDS011;10197;54.282;10.078;2023-12-14T10:18:06;5.90;;;4.75;;
20073;SDS011;10197;54.282;10.078;2023-12-14T10:20:33;6.80;;;4.53;;
20073;SDS011;10197;54.282;10.078;2023-12-14T10:23:03;7.57;;;5.05;;
20073;SDS011;10197;54.282;10.078;2023-12-14T10:25:30;6.22;;;4.80;;
20073;SDS011;10197;54.282;10.078;2023-12-14T10:27:58;6.88;;;5.03;;
20073;SDS011;10197;54.282;10.078;2023-12-14T10:30:25;5.80;;;4.60;;
20073;SDS011;10197;54.282;10.078;2023-12-14T10:32:53;8.40;;;5.38;;
20073;SDS011;10197;54.282;10.078;2023-12-14T10:35:19;5.82;;;4.35;;
20073;SDS011;10197;54.282;10.078;2023-12-14T10:37:48;6.07;;;4.45;;
20073;SDS011;10197;54.282;10.078;2023-12-14T10:40:17;6.63;;;4.90;;
20073;SDS011;10197;54.282;10.078;2023-12-14T10:42:45;5.85;;;4.50;;
20073;SDS011;10197;54.282;10.078;2023-12-14T10:45:13;7.80;;;4.90;;
20073;SDS011;10197;54.282;10.078;2023-12-14T10:47:42;6.57;;;4.65;;
20073;SDS011;10197;54.282;10.078;2023-12-14T10:50:10;7.07;;;4.68;;
20073;SDS011;10197;54.282;10.078;2023-12-14T10:52:37;7.55;;;5.00;;
20073;SDS011;10197;54.282;10.078;2023-12-14T10:55:06;7.03;;;4.88;;
20073;SDS011;10197;54.282;10.078;2023-12-14T10:57:37;6.72;;;5.03;;
20073;SDS011;10197;54.282;10.078;2023-12-14T11:00:05;9.82;;;6.43;;
20073;SDS011;10197;54.282;10.078;2023-12-14T11:02:39;9.45;;;6.78;;
20073;SDS011;10197;54.282;10.078;2023-12-14T11:05:08;9.52;;;7.50;;
20073;SDS011;10197;54.282;10.078;2023-12-14T11:07:43;11.00;;;8.10;;
20073;SDS011;10197;54.282;10.078;2023-12-14T11:10:11;9.85;;;7.20;;
20073;SDS011;10197;54.282;10.078;2023-12-14T11:12:39;8.68;;;6.32;;
20073;SDS011;10197;54.282;10.078;2023-12-14T11:15:17;7.65;;;6.57;;
20073;SDS011;10197;54.282;10.078;2023-12-14T11:17:44;9.98;;;6.72;;
20073;SDS011;10197;54.282;10.078;2023-12-14T11:20:50;5.57;;;4.72;;
20073;SDS011;10197;54.282;10.078;2023-12-14T11:23:18;7.38;;;5.05;;
20073;SDS011;10197;54.282;10.078;2023-12-14T11:25:55;8.05;;;4.68;;
20073;SDS011;10197;54.282;10.078;2023-12-14T11:28:25;6.63;;;4.68;;
20073;SDS011;10197;54.282;10.078;2023-12-14T11:30:52;6.97;;;5.13;;
20073;SDS011;10197;54.282;10.078;2023-12-14T11:33:19;6.72;;;5.03;;
20073;SDS011;10197;54.282;10.078;2023-12-14T11:35:45;6.63;;;5.18;;
20073;SDS011;10197;54.282;10.078;2023-12-14T11:38:12;4.90;;;4.40;;
20073;SDS011;10197;54.282;10.078;2023-12-14T11:40:39;4.78;;;3.78;;
20073;SDS011;10197;54.282;10.078;2023-12-14T11:43:06;4.18;;;3.40;;
20073;SDS011;10197;54.282;10.078;2023-12-14T11:45:35;4.57;;;3.58;;
20073;SDS011;10197;54.282;10.078;2023-12-14T11:48:02;3.95;;;3.45;;
20073;SDS011;10197;54.282;10.078;2023-12-14T11:50:31;4.88;;;3.90;;
20073;SDS011;10197;54.282;10.078;2023-12-14T11:52:58;4.05;;;3.33;;
20073;SDS011;10197;54.282;10.078;2023-12-14T11:55:25;4.65;;;3.42;;
20073;SDS011;10197;54.282;10.078;2023-12-14T11:57:52;4.18;;;3.58;;
20073;SDS011;10197;54.282;10.078;2023-12-14T12:00:22;3.65;;;3.35;;
20073;SDS011;10197;54.282;10.078;2023-12-14T12:02:51;4.32;;;3.20;;
20073;SDS011;10197;54.282;10.078;2023-12-14T12:05:18;3.47;;;3.17;;
20073;SDS011;10197;54.282;10.078;2023-12-14T12:07:45;5.28;;;3.47;;
20073;SDS011;10197;54.282;10.078;2023-12-14T12:10:12;3.65;;;3.35;;
20073;SDS011;10197;54.282;10.078;2023-12-14T12:12:38;4.00;;;3.28;;
20073;SDS011;10197;54.282;10.078;2023-12-14T12:15:06;3.83;;;2.95;;
20073;SDS011;10197;54.282;10.078;2023-12-14T12:17:33;2.60;;;2.40;;
20073;SDS011;10197;54.282;10.078;2023-12-14T12:20:05;3.17;;;2.50;;
20073;SDS011;10197;54.282;10.078;2023-12-14T12:22:33;2.33;;;2.10;;
20073;SDS011;10197;54.282;10.078;2023-12-14T12:24:59;2.17;;;1.90;;
20073;SDS011;10197;54.282;10.078;2023-12-14T12:27:27;1.83;;;1.73;;
20073;SDS011;10197;54.282;10.078;2023-12-14T12:29:54;2.60;;;1.90;;
20073;SDS011;10197;54.282;10.078;2023-12-14T12:32:20;2.15;;;1.95;;
20073;SDS011;10197;54.282;10.078;2023-12-14T12:34:49;2.17;;;1.98;;
20073;SDS011;10197;54.282;10.078;2023-12-14T12:37:19;2.10;;;1.90;;
20073;SDS011;10197;54.282;10.078;2023-12-14T12:39:46;2.10;;;1.90;;
20073;SDS011;10197;54.282;10.078;2023-12-14T12:42:12;1.98;;;1.88;;
20073;SDS011;10197;54.282;10.078;2023-12-14T12:44:39;2.10;;;2.00;;
20073;SDS011;10197;54.282;10.078;2023-12-14T12:47:05;2.00;;;1.80;;
20073;SDS011;10197;54.282;10.078;2023-12-14T12:49:32;2.63;;;1.90;;
20073;SDS011;10197;54.282;10.078;2023-12-14T12:51:59;2.60;;;2.00;;
20073;SDS011;10197;54.282;10.078;2023-12-14T12:54:27;2.85;;;2.25;;
20073;SDS011;10197;54.282;10.078;2023-12-14T12:56:54;2.30;;;2.10;;
20073;SDS011;10197;54.282;10.078;2023-12-14T12:59:20;2.63;;;2.25;;
20073;SDS011;10197;54.282;10.078;2023-12-14T13:01:47;2.47;;;2.28;;
20073;SDS011;10197;54.282;10.078;2023-12-14T13:04:17;3.35;;;2.72;;
20073;SDS011;10197;54.282;10.078;2023-12-14T13:06:45;3.28;;;2.55;;
20073;SDS011;10197;54.282;10.078;2023-12-14T13:09:13;3.38;;;2.90;;
20073;SDS011;10197;54.282;10.078;2023-12-14T13:11:41;2.92;;;2.60;;
20073;SDS011;10197;54.282;10.078;2023-12-14T13:14:08;3.15;;;2.85;;
20073;SDS011;10197;54.282;10.078;2023-12-14T13:16:35;4.53;;;3.50;;
20073;SDS011;10197;54.282;10.078;2023-12-14T13:19:02;4.30;;;3.50;;
20073;SDS011;10197;54.282;10.078;2023-12-14T13:21:30;4.18;;;3.65;;
20073;SDS011;10197;54.282;10.078;2023-12-14T13:23:58;4.18;;;3.60;;
20073;SDS011;10197;54.282;10.078;2023-12-14T13:26:25;4.45;;;3.50;;
20073;SDS011;10197;54.282;10.078;2023-12-14T13:28:53;3.42;;;2.95;;
20073;SDS011;10197;54.282;10.078;2023-12-14T13:31:20;3.65;;;3.33;;
20073;SDS011;10197;54.282;10.078;2023-12-14T13:33:47;4.15;;;3.15;;
20073;SDS011;10197;54.282;10.078;2023-12-14T13:36:15;4.55;;;3.67;;
20073;SDS011;10197;54.282;10.078;2023-12-14T13:38:43;4.75;;;3.95;;
20073;SDS011;10197;54.282;10.078;2023-12-14T13:41:10;4.20;;;3.40;;
20073;SDS011;10197;54.282;10.078;2023-12-14T13:43:37;3.55;;;3.25;;
20073;SDS011;10197;54.282;10.078;2023-12-14T13:46:05;5.65;;;4.00;;
20073;SDS011;10197;54.282;10.078;2023-12-14T13:48:32;8.35;;;6.05;;
20073;SDS011;10197;54.282;10.078;2023-12-14T13:50:59;7.05;;;4.80;;
20073;SDS011;10197;54.282;10.078;2023-12-14T13:53:25;4.55;;;4.10;;
20073;SDS011;10197;54.282;10.078;2023-12-14T13:55:52;4.80;;;4.35;;
20073;SDS011;10197;54.282;10.078;2023-12-14T13:58:19;5.00;;;4.05;;
20073;SDS011;10197;54.282;10.078;2023-12-14T14:00:46;3.95;;;3.60;;
20073;SDS011;10197;54.282;10.078;2023-12-14T14:03:14;4.10;;;3.80;;
20073;SDS011;10197;54.282;10.078;2023-12-14T14:05:41;37.65;;;17.77;;
20073;SDS011;10197;54.282;10.078;2023-12-14T14:08:09;18.45;;;11.95;;
20073;SDS011;10197;54.282;10.078;2023-12-14T14:10:36;8.57;;;6.53;;
20073;SDS011;10197;54.282;10.078;2023-12-14T14:13:02;6.40;;;5.47;;
20073;SDS011;10197;54.282;10.078;2023-12-14T14:15:29;7.03;;;4.70;;
20073;SDS011;10197;54.282;10.078;2023-12-14T14:17:56;5.50;;;4.50;;
20073;SDS011;10197;54.282;10.078;2023-12-14T14:20:24;9.65;;;6.63;;
20073;SDS011;10197;54.282;10.078;2023-12-14T14:22:51;7.10;;;6.00;;
20073;SDS011;10197;54.282;10.078;2023-12-14T14:25:18;6.47;;;5.38;;
20073;SDS011;10197;54.282;10.078;2023-12-14T14:27:44;6.22;;;4.35;;
20073;SDS011;10197;54.282;10.078;2023-12-14T14:30:13;6.10;;;5.20;;
20073;SDS011;10197;54.282;10.078;2023-12-14T14:32:41;4.90;;;4.40;;